Time;durP1;ratioP1;P1;durP2;ratioP2;P2;SDS_P1;SDS_P2;PMS_P1;PMS_P2;Temp;Humidity;BMP_temperature;BMP_pressure;BME280_temperature;BME280_humidity;BME280_pressure;Samples;Min_cycle;Max_cycle;Signal;HPM_P1;HPM_P2
2021/06/29 00:01:49;;;;;;;2.93;2.73;;;24.50;99.90;;;;;;4994626;28;20552;-78
2021/06/29 00:04:14;;;;;;;3.10;2.90;;;24.50;99.90;;;;;;5012187;28;20517;-78
2021/06/29 00:06:40;;;;;;;5.37;3.63;;;24.50;99.90;;;;;;5011975;28;20577;-78
2021/06/29 00:09:06;;;;;;;3.80;3.30;;;24.50;99.90;;;;;;4978259;28;20202;-79
2021/06/29 00:11:32;;;;;;;3.80;3.50;;;24.50;99.90;;;;;;4994333;28;20170;-79
2021/06/29 00:13:57;;;;;;;3.50;3.20;;;24.50;99.90;;;;;;4996425;28;20261;-79
2021/06/29 00:16:23;;;;;;;3.50;3.20;;;24.50;99.90;;;;;;5013221;28;20174;-79
2021/06/29 00:18:49;;;;;;;5.90;3.70;;;24.40;99.90;;;;;;5017165;28;20193;-79
2021/06/29 00:21:15;;;;;;;4.07;3.67;;;24.20;99.90;;;;;;5012389;28;20177;-79
2021/06/29 00:23:41;;;;;;;4.10;3.70;;;24.00;99.90;;;;;;4994729;28;20179;-79
2021/06/29 00:26:08;;;;;;;4.30;3.90;;;23.80;99.90;;;;;;5011790;28;20683;-79
2021/06/29 00:28:35;;;;;;;4.27;3.97;;;23.50;99.90;;;;;;5012106;28;20198;-80
2021/06/29 00:31:02;;;;;;;2.97;2.77;;;23.30;99.90;;;;;;5012011;28;20572;-79
2021/06/29 00:33:27;;;;;;;4.40;4.00;;;23.10;99.90;;;;;;5011595;28;20624;-80
2021/06/29 00:35:53;;;;;;;4.77;4.37;;;23.00;99.90;;;;;;5011738;28;20581;-80
2021/06/29 00:38:19;;;;;;;4.87;4.37;;;22.90;99.90;;;;;;5011703;28;20224;-80
2021/06/29 00:40:44;;;;;;;3.70;3.40;;;22.80;99.90;;;;;;5012001;28;20162;-80
2021/06/29 00:43:10;;;;;;;4.57;4.17;;;22.70;99.90;;;;;;5011981;28;20198;-80
2021/06/29 00:45:36;;;;;;;5.70;4.47;;;22.60;99.90;;;;;;5015513;28;20198;-80
2021/06/29 00:48:02;;;;;;;4.60;4.20;;;22.50;99.90;;;;;;5014360;28;20221;-79
2021/06/29 00:50:27;;;;;;;4.53;4.13;;;22.40;99.90;;;;;;5015999;28;20166;-80
2021/06/29 00:52:53;;;;;;;5.27;4.43;;;22.30;99.90;;;;;;5016176;28;21121;-79
2021/06/29 00:55:19;;;;;;;5.00;4.50;;;22.30;99.90;;;;;;5019003;28;20182;-80
2021/06/29 00:57:48;;;;;;;5.00;4.60;;;22.20;99.90;;;;;;4998205;28;20198;-80
2021/06/29 01:00:15;;;;;;;7.53;4.50;;;22.20;99.90;;;;;;5015879;28;20223;-80
2021/06/29 01:02:40;;;;;;;4.43;4.03;;;22.20;99.90;;;;;;4998406;28;20581;-79
2021/06/29 01:05:07;;;;;;;5.90;5.40;;;22.10;99.90;;;;;;4998073;28;21203;-80
2021/06/29 01:07:33;;;;;;;4.57;4.17;;;22.10;99.90;;;;;;4997568;28;20352;-80
2021/06/29 01:09:59;;;;;;;3.90;3.60;;;22.10;99.90;;;;;;5015550;28;21200;-80
2021/06/29 01:12:24;;;;;;;3.43;2.90;;;22.10;99.90;;;;;;4998301;28;20232;-80
2021/06/29 01:14:50;;;;;;;2.90;2.70;;;22.10;99.90;;;;;;5015215;28;20693;-79
2021/06/29 01:17:17;;;;;;;2.93;2.73;;;22.10;99.90;;;;;;5014934;28;20163;-80
2021/06/29 01:19:46;;;;;;;7.17;2.80;;;22.00;99.90;;;;;;5015054;28;20248;-80
2021/06/29 01:22:14;;;;;;;2.60;2.40;;;22.10;99.90;;;;;;5015647;28;20569;-80
2021/06/29 01:24:42;;;;;;;2.80;2.60;;;22.10;99.90;;;;;;5015164;28;20625;-80
2021/06/29 01:32:20;;;;;;;3.20;2.20;;;22.00;99.90;;;;;;5019624;28;20569;-80
2021/06/29 01:34:47;;;;;;;2.80;2.60;;;22.00;99.90;;;;;;5016526;28;20643;-80
2021/06/29 01:37:13;;;;;;;3.00;2.70;;;22.00;99.90;;;;;;5014832;28;20581;-80
2021/06/29 01:40:01;;;;;;;3.10;2.80;;;22.00;99.90;;;;;;5014945;28;20573;-79
2021/06/29 01:42:26;;;;;;;5.13;2.13;;;22.00;99.90;;;;;;5014978;28;20620;-80
2021/06/29 01:44:52;;;;;;;2.90;2.60;;;22.00;99.90;;;;;;5014526;28;21031;-80
2021/06/29 01:47:27;;;;;;;2.90;2.47;;;21.90;99.90;;;;;;5014646;28;20489;-80
2021/06/29 01:49:54;;;;;;;3.80;2.47;;;21.90;99.90;;;;;;4997084;28;20572;-80
2021/06/29 01:52:20;;;;;;;4.07;3.13;;;21.90;99.90;;;;;;5014831;28;20559;-80
2021/06/29 01:54:45;;;;;;;3.70;2.87;;;21.90;99.90;;;;;;5014363;28;20936;-79
2021/06/29 01:57:18;;;;;;;3.43;2.70;;;21.90;99.90;;;;;;5014431;28;20167;-80
2021/06/29 01:59:47;;;;;;;3.23;2.97;;;21.90;99.90;;;;;;4996674;28;20174;-79
2021/06/29 02:02:13;;;;;;;2.70;2.47;;;21.90;99.90;;;;;;5014359;28;21004;-80
2021/06/29 02:04:39;;;;;;;2.70;2.20;;;21.80;99.90;;;;;;5014475;28;20721;-79
2021/06/29 02:07:04;;;;;;;4.30;3.27;;;21.80;99.90;;;;;;5017479;28;20162;-79
2021/06/29 02:09:30;;;;;;;3.03;2.83;;;21.80;99.90;;;;;;5014995;28;20723;-79
2021/06/29 02:11:56;;;;;;;3.93;2.57;;;21.80;99.90;;;;;;5014551;28;20171;-79
2021/06/29 02:14:21;;;;;;;3.20;2.90;;;21.70;99.90;;;;;;5013145;28;20265;-80
2021/06/29 02:16:47;;;;;;;3.50;2.93;;;21.80;99.90;;;;;;5014069;28;20580;-79
2021/06/29 02:19:13;;;;;;;4.13;2.80;;;21.80;99.90;;;;;;5013609;28;20190;-79
2021/06/29 02:21:38;;;;;;;3.57;3.27;;;21.70;99.90;;;;;;5014095;28;20188;-79
2021/06/29 02:24:05;;;;;;;2.77;2.57;;;21.70;99.90;;;;;;5014109;28;20162;-80
2021/06/29 02:26:30;;;;;;;3.53;3.00;;;21.70;99.90;;;;;;5013813;28;20237;-79
2021/06/29 02:28:56;;;;;;;4.03;3.60;;;21.70;99.90;;;;;;5013318;28;21179;-79
2021/06/29 02:31:35;;;;;;;3.60;2.60;;;21.70;99.90;;;;;;4996661;28;20209;-80
2021/06/29 02:34:14;;;;;;;3.23;2.50;;;21.60;99.90;;;;;;4998250;28;20178;-80
2021/06/29 02:36:40;;;;;;;3.47;3.17;;;21.60;99.90;;;;;;5013749;28;20584;-80
2021/06/29 02:39:05;;;;;;;3.57;2.57;;;21.60;99.90;;;;;;4995795;28;20662;-81
2021/06/29 02:41:31;;;;;;;2.70;2.30;;;21.60;99.90;;;;;;5013910;28;20229;-81
2021/06/29 02:43:57;;;;;;;2.60;2.40;;;21.50;99.90;;;;;;4998939;28;20176;-81
2021/06/29 02:46:23;;;;;;;2.90;2.60;;;21.50;99.90;;;;;;5013324;28;20210;-80
2021/06/29 02:48:49;;;;;;;2.80;2.30;;;21.50;99.90;;;;;;5013143;28;21148;-80
2021/06/29 02:51:15;;;;;;;5.83;2.10;;;21.50;99.90;;;;;;5013579;28;20620;-80
2021/06/29 02:53:41;;;;;;;2.50;2.30;;;21.40;99.90;;;;;;4995877;28;20572;-80
2021/06/29 02:56:36;;;;;;;4.87;2.80;;;21.40;99.90;;;;;;5013181;28;20585;-81
2021/06/29 02:58:52;;;;;;;3.33;3.00;;;21.40;99.90;;;;;;4995294;28;20531;-81
2021/06/29 03:01:18;;;;;;;6.57;2.83;;;21.30;99.90;;;;;;5013385;28;20577;-80
2021/06/29 03:03:43;;;;;;;2.90;2.53;;;21.30;99.90;;;;;;5013266;28;20175;-80
2021/06/29 03:06:09;;;;;;;3.50;2.17;;;21.30;99.90;;;;;;4995263;28;20236;-81
2021/06/29 03:08:35;;;;;;;2.20;2.00;;;21.20;99.90;;;;;;5012488;28;20209;-81
2021/06/29 03:11:00;;;;;;;2.40;2.20;;;21.20;99.90;;;;;;5012142;28;20177;-80
2021/06/29 03:13:26;;;;;;;4.93;2.57;;;21.10;99.90;;;;;;5012963;28;20219;-80
2021/06/29 03:15:52;;;;;;;2.70;2.50;;;21.10;99.90;;;;;;5012924;28;20174;-81
2021/06/29 03:18:23;;;;;;;2.40;2.00;;;21.10;99.90;;;;;;5013409;28;20197;-80
2021/06/29 03:20:48;;;;;;;2.27;2.00;;;21.10;99.90;;;;;;4998236;28;20585;-80
2021/06/29 03:23:14;;;;;;;2.47;1.93;;;21.10;99.90;;;;;;5012817;28;20668;-80
2021/06/29 03:25:40;;;;;;;2.27;2.00;;;21.00;99.90;;;;;;4995202;28;20592;-79
2021/06/29 03:28:06;;;;;;;3.07;2.77;;;21.00;99.90;;;;;;4994946;28;20194;-80
2021/06/29 03:30:31;;;;;;;3.10;2.30;;;21.00;99.90;;;;;;4996410;28;20688;-80
2021/06/29 03:32:57;;;;;;;2.90;2.63;;;21.00;99.90;;;;;;4995438;28;20542;-80
2021/06/29 03:35:23;;;;;;;3.53;2.80;;;21.00;99.90;;;;;;4995319;28;20573;-80
2021/06/29 03:37:49;;;;;;;2.50;2.30;;;21.00;99.90;;;;;;4994802;28;20206;-81
2021/06/29 03:40:16;;;;;;;3.73;2.90;;;20.90;99.90;;;;;;5012688;28;20253;-81
2021/06/29 03:42:41;;;;;;;2.83;2.53;;;21.00;99.90;;;;;;5012700;28;20170;-80
2021/06/29 03:45:08;;;;;;;2.50;2.27;;;21.00;99.90;;;;;;4994893;28;20719;-80
2021/06/29 03:47:35;;;;;;;2.70;2.00;;;21.00;99.90;;;;;;4994771;28;20225;-80
2021/06/29 03:50:01;;;;;;;3.33;3.00;;;21.00;99.90;;;;;;5012388;28;20582;-80
2021/06/29 03:52:30;;;;;;;2.83;2.50;;;21.00;99.90;;;;;;5012818;28;20576;-80
2021/06/29 03:54:56;;;;;;;3.30;2.67;;;21.00;99.90;;;;;;5012991;28;20639;-79
2021/06/29 03:57:21;;;;;;;3.63;2.80;;;21.00;99.90;;;;;;5015923;28;20937;-80
2021/06/29 03:59:47;;;;;;;3.60;2.60;;;21.00;99.90;;;;;;5012186;28;20174;-80
2021/06/29 04:02:13;;;;;;;3.70;2.70;;;21.00;99.90;;;;;;5012428;28;20178;-80
2021/06/29 04:04:39;;;;;;;3.03;2.80;;;21.10;99.90;;;;;;4995144;28;20619;-80
2021/06/29 04:07:08;;;;;;;3.33;2.97;;;21.10;99.90;;;;;;5012447;28;20374;-79
2021/06/29 04:09:37;;;;;;;3.70;2.90;;;21.10;99.90;;;;;;5012372;28;20632;-79
2021/06/29 04:12:05;;;;;;;3.47;2.57;;;21.20;99.90;;;;;;5013026;28;20593;-80
2021/06/29 04:14:30;;;;;;;3.03;2.20;;;21.20;99.90;;;;;;5014138;28;20569;-80
2021/06/29 04:16:56;;;;;;;2.53;2.33;;;21.30;99.90;;;;;;5013199;28;20584;-79
2021/06/29 04:19:22;;;;;;;2.80;2.37;;;21.40;99.90;;;;;;5012004;28;20190;-80
2021/06/29 04:21:47;;;;;;;3.77;2.60;;;21.50;99.90;;;;;;5012635;28;20174;-80
2021/06/29 04:24:13;;;;;;;3.23;2.30;;;21.50;99.90;;;;;;5012865;28;20174;-79
2021/06/29 04:26:39;;;;;;;3.03;2.30;;;21.60;99.90;;;;;;5012903;28;20310;-79
2021/06/29 04:29:05;;;;;;;3.50;2.70;;;21.70;99.90;;;;;;5016619;28;20583;-79
2021/06/29 04:31:31;;;;;;;2.70;2.50;;;21.70;99.90;;;;;;5015520;28;20526;-79
2021/06/29 04:33:57;;;;;;;6.17;2.60;;;21.80;99.90;;;;;;5015221;28;20171;-78
2021/06/29 04:36:22;;;;;;;5.03;2.80;;;21.80;99.90;;;;;;5011827;28;20631;-78
2021/06/29 04:38:48;;;;;;;2.40;2.20;;;21.90;99.90;;;;;;5011751;28;20656;-78
2021/06/29 04:41:14;;;;;;;3.80;3.03;;;22.00;99.90;;;;;;5011961;28;20178;-78
2021/06/29 04:43:43;;;;;;;2.93;2.30;;;22.10;99.90;;;;;;5012017;28;20193;-77
2021/06/29 04:46:09;;;;;;;3.07;2.77;;;22.10;99.90;;;;;;5011665;28;20206;-77
2021/06/29 04:48:37;;;;;;;2.47;2.27;;;22.20;99.90;;;;;;5011429;28;20993;-77
2021/06/29 04:51:07;;;;;;;2.77;2.50;;;22.30;99.90;;;;;;5011764;28;20985;-78
2021/06/29 04:53:33;;;;;;;3.43;2.10;;;22.30;99.90;;;;;;5011806;28;20601;-77
2021/06/29 04:55:59;;;;;;;2.07;1.87;;;22.40;99.90;;;;;;4994076;28;20586;-77
2021/06/29 04:58:25;;;;;;;3.23;2.07;;;22.40;99.90;;;;;;5011242;28;20597;-77
2021/06/29 05:00:51;;;;;;;2.30;2.10;;;22.50;99.90;;;;;;5010609;28;20569;-76
2021/06/29 05:03:17;;;;;;;1.70;1.20;;;22.50;99.90;;;;;;5011024;28;20544;-75
2021/06/29 05:05:44;;;;;;;1.60;1.20;;;22.60;99.90;;;;;;5010379;28;20289;-74
2021/06/29 05:08:13;;;;;;;2.33;1.33;;;22.60;99.90;;;;;;5009553;28;20637;-74
2021/06/29 05:10:39;;;;;;;1.87;1.20;;;22.60;99.90;;;;;;4993875;28;20604;-75
2021/06/29 05:13:05;;;;;;;2.33;1.83;;;22.70;99.90;;;;;;5010003;28;20592;-75
2021/06/29 05:15:31;;;;;;;1.67;1.30;;;22.70;99.90;;;;;;5011088;28;21128;-75
2021/06/29 05:17:57;;;;;;;1.83;1.10;;;22.70;99.90;;;;;;5011115;28;20228;-75
2021/06/29 05:20:23;;;;;;;2.00;1.10;;;22.80;99.90;;;;;;5011319;28;21165;-76
2021/06/29 05:22:49;;;;;;;2.20;1.00;;;22.80;99.90;;;;;;5011190;28;20680;-75
2021/06/29 05:25:14;;;;;;;1.70;1.20;;;22.80;99.90;;;;;;4993308;28;20201;-76
2021/06/29 05:27:41;;;;;;;1.90;1.00;;;22.80;99.90;;;;;;4993254;28;20187;-75
2021/06/29 05:30:09;;;;;;;2.57;1.10;;;22.90;99.90;;;;;;5010885;28;20176;-78
2021/06/29 05:32:35;;;;;;;1.67;0.90;;;22.90;99.90;;;;;;5014813;28;20625;-77
2021/06/29 05:35:00;;;;;;;1.73;1.00;;;23.00;99.90;;;;;;5014434;28;20638;-77
2021/06/29 05:37:26;;;;;;;1.40;1.07;;;23.00;99.90;;;;;;5014448;28;20914;-77
2021/06/29 05:39:52;;;;;;;1.40;1.10;;;23.10;99.90;;;;;;5014904;28;20973;-77
2021/06/29 05:42:18;;;;;;;2.43;1.00;;;23.20;99.90;;;;;;5014097;28;20540;-77
2021/06/29 05:44:44;;;;;;;2.03;0.93;;;23.30;99.90;;;;;;5017524;28;20667;-76
2021/06/29 05:47:15;;;;;;;1.87;0.90;;;23.50;99.90;;;;;;5015528;28;20560;-76
2021/06/29 05:49:40;;;;;;;1.97;1.23;;;23.60;99.90;;;;;;5004186;28;20167;-75
2021/06/29 05:52:06;;;;;;;3.13;0.90;;;23.70;99.90;;;;;;5018829;28;20627;-75
2021/06/29 05:54:32;;;;;;;3.20;0.90;;;23.70;99.90;;;;;;5019183;28;20234;-76
2021/06/29 05:56:58;;;;;;;3.80;1.10;;;23.80;99.90;;;;;;5018263;28;20605;-76
2021/06/29 05:59:24;;;;;;;4.33;1.00;;;23.80;99.90;;;;;;5018160;28;20201;-76
2021/06/29 06:01:51;;;;;;;3.13;0.90;;;23.90;99.90;;;;;;5017152;28;20208;-76
2021/06/29 06:04:17;;;;;;;1.87;0.90;;;23.90;99.90;;;;;;5002746;28;20189;-74
2021/06/29 06:06:42;;;;;;;2.67;1.00;;;23.90;99.90;;;;;;5018591;28;20620;-75
2021/06/29 06:09:08;;;;;;;1.63;0.70;;;24.00;99.90;;;;;;5015463;28;20304;-75
2021/06/29 06:11:53;;;;;;;2.27;1.20;;;24.10;99.90;;;;;;4991109;28;20182;-75
2021/06/29 06:14:19;;;;;;;3.20;1.20;;;24.20;99.90;;;;;;5013840;28;20577;-79
2021/06/29 06:16:44;;;;;;;2.20;1.47;;;24.30;99.90;;;;;;5014256;28;20244;-78
2021/06/29 06:19:11;;;;;;;3.50;1.03;;;24.30;99.90;;;;;;5012735;28;20616;-78
2021/06/29 06:21:37;;;;;;;1.70;1.27;;;24.40;99.90;;;;;;5017393;28;20174;-78
2021/06/29 06:24:03;;;;;;;2.13;1.10;;;24.50;99.90;;;;;;5014387;28;20742;-78
2021/06/29 06:26:29;;;;;;;2.10;0.93;;;24.60;99.90;;;;;;5014161;28;20209;-79
2021/06/29 06:28:55;;;;;;;2.30;1.00;;;24.70;99.90;;;;;;5014042;28;20600;-78
2021/06/29 06:31:21;;;;;;;2.20;1.20;;;24.80;99.90;;;;;;4996390;28;20240;-79
2021/06/29 06:33:47;;;;;;;1.50;1.00;;;24.90;99.90;;;;;;5012767;28;20652;-79
2021/06/29 06:36:13;;;;;;;2.40;0.90;;;24.90;99.90;;;;;;4995866;28;20210;-78
2021/06/29 06:38:39;;;;;;;2.30;0.90;;;25.00;99.90;;;;;;5013492;28;20210;-78
2021/06/29 06:41:04;;;;;;;2.40;0.83;;;25.10;99.90;;;;;;5011968;28;20178;-78
2021/06/29 06:43:30;;;;;;;2.70;0.90;;;25.10;99.90;;;;;;5013279;28;20210;-79
2021/06/29 06:45:56;;;;;;;1.50;0.90;;;25.20;99.90;;;;;;5012419;28;20677;-79
2021/06/29 06:48:22;;;;;;;2.37;1.43;;;25.40;99.90;;;;;;4995731;28;20183;-78
2021/06/29 06:50:48;;;;;;;4.57;1.33;;;25.50;99.90;;;;;;5013445;28;20569;-78
2021/06/29 06:53:14;;;;;;;3.40;1.00;;;25.70;99.90;;;;;;5013477;28;20573;-76
2021/06/29 06:55:40;;;;;;;2.47;0.93;;;25.70;99.90;;;;;;5014129;28;20177;-76
2021/06/29 06:58:06;;;;;;;4.30;1.30;;;25.80;99.90;;;;;;5018225;28;20696;-78
2021/06/29 07:00:32;;;;;;;2.03;0.90;;;25.90;99.90;;;;;;5013413;28;20681;-80
2021/06/29 07:02:57;;;;;;;2.73;1.20;;;26.00;99.90;;;;;;5012180;28;20257;-78
2021/06/29 07:05:23;;;;;;;2.10;1.30;;;26.00;99.90;;;;;;5012890;28;20305;-77
2021/06/29 07:07:49;;;;;;;2.87;0.90;;;26.10;99.90;;;;;;5012839;28;20229;-78
2021/06/29 07:10:15;;;;;;;1.70;0.90;;;26.20;99.90;;;;;;4995387;28;21286;-77
2021/06/29 07:12:41;;;;;;;4.77;1.20;;;26.20;99.90;;;;;;5012203;28;20573;-78
2021/06/29 07:15:08;;;;;;;1.87;0.90;;;26.20;99.90;;;;;;5014038;28;20577;-77
2021/06/29 07:17:34;;;;;;;1.67;0.80;;;26.20;99.90;;;;;;5013030;28;20858;-77
2021/06/29 07:20:01;;;;;;;4.07;0.97;;;26.30;99.90;;;;;;5012819;28;20669;-77
2021/06/29 07:22:26;;;;;;;1.50;0.80;;;26.30;99.90;;;;;;5011457;28;20576;-77
2021/06/29 07:24:52;;;;;;;2.77;0.90;;;26.30;99.90;;;;;;5012676;28;20617;-77
2021/06/29 07:27:18;;;;;;;1.90;0.93;;;26.40;99.90;;;;;;4995140;28;20174;-77
2021/06/29 07:29:44;;;;;;;1.43;0.83;;;26.50;99.90;;;;;;5012150;28;20170;-77
2021/06/29 07:32:10;;;;;;;1.90;1.50;;;26.60;99.90;;;;;;5012735;28;20193;-78
2021/06/29 07:34:36;;;;;;;2.13;1.30;;;26.80;99.90;;;;;;5017410;28;20565;-77
2021/06/29 07:37:03;;;;;;;2.57;1.10;;;27.00;99.90;;;;;;4995038;28;20601;-77
2021/06/29 07:39:28;;;;;;;3.07;1.40;;;27.20;99.90;;;;;;5010940;28;20597;-77
2021/06/29 07:41:54;;;;;;;2.33;1.00;;;27.40;99.90;;;;;;5012724;28;20568;-77
2021/06/29 07:44:20;;;;;;;4.50;0.97;;;27.60;99.90;;;;;;4995082;28;20197;-78
2021/06/29 07:46:45;;;;;;;2.60;0.87;;;28.00;99.90;;;;;;5012996;28;20256;-78
2021/06/29 07:49:11;;;;;;;3.50;1.20;;;28.40;99.90;;;;;;5013183;28;20233;-77
2021/06/29 07:51:37;;;;;;;3.17;0.93;;;28.90;99.90;;;;;;5014640;28;20174;-77
2021/06/29 07:54:03;;;;;;;1.70;1.10;;;29.40;99.90;;;;;;4997025;28;20171;-78
2021/06/29 07:56:28;;;;;;;5.60;1.17;;;29.90;99.90;;;;;;5013906;28;20177;-79
2021/06/29 07:58:55;;;;;;;4.07;0.80;;;30.50;99.90;;;;;;4996631;28;20190;-80
2021/06/29 08:01:20;;;;;;;2.13;0.70;;;31.00;99.90;;;;;;5012604;28;20162;-80
2021/06/29 08:03:46;;;;;;;2.47;0.93;;;31.50;99.90;;;;;;5011291;28;20581;-80
2021/06/29 08:06:13;;;;;;;1.53;0.80;;;32.20;99.90;;;;;;5011582;28;20704;-80
2021/06/29 08:08:40;;;;;;;2.43;0.70;;;32.90;99.90;;;;;;4994828;28;20615;-80
2021/06/29 08:11:09;;;;;;;2.23;0.70;;;33.50;99.90;;;;;;5012855;28;20572;-80
2021/06/29 08:13:36;;;;;;;1.13;0.60;;;33.90;99.90;;;;;;4994830;28;20577;-79
2021/06/29 08:16:03;;;;;;;1.27;0.57;;;34.20;99.90;;;;;;5011860;28;20986;-79
2021/06/29 08:18:29;;;;;;;2.17;0.60;;;34.40;99.90;;;;;;5011718;28;20679;-79
2021/06/29 08:20:57;;;;;;;1.40;0.60;;;34.60;99.90;;;;;;5012190;28;20665;-79
2021/06/29 08:23:27;;;;;;;2.07;0.70;;;34.90;99.30;;;;;;5010920;28;20689;-80
2021/06/29 08:25:53;;;;;;;4.07;0.70;;;35.20;98.20;;;;;;5010779;28;20612;-80
2021/06/29 08:28:19;;;;;;;1.40;0.60;;;35.50;97.60;;;;;;5012117;28;20577;-79
2021/06/29 08:30:45;;;;;;;1.80;0.70;;;35.90;96.90;;;;;;5012280;28;20934;-80
2021/06/29 08:33:12;;;;;;;2.53;0.60;;;36.40;95.80;;;;;;5012395;28;20569;-80
2021/06/29 08:35:43;;;;;;;1.10;0.60;;;37.00;95.00;;;;;;5015082;28;20616;-79
2021/06/29 08:38:09;;;;;;;2.30;0.90;;;37.50;93.60;;;;;;5016550;28;20600;-80
2021/06/29 08:40:37;;;;;;;1.50;0.60;;;38.00;92.80;;;;;;5016956;28;20964;-76
2021/06/29 08:43:06;;;;;;;2.50;0.60;;;38.30;91.20;;;;;;5014062;28;20544;-81
2021/06/29 08:45:33;;;;;;;1.13;0.70;;;38.50;87.50;;;;;;4999239;28;20660;-79
2021/06/29 08:48:01;;;;;;;2.50;0.70;;;38.50;83.50;;;;;;5015926;28;20632;-78
2021/06/29 08:50:30;;;;;;;2.50;0.77;;;38.30;80.80;;;;;;5021342;28;20967;-80
2021/06/29 08:53:04;;;;;;;1.50;0.73;;;37.90;78.80;;;;;;5024169;28;20690;-80
2021/06/29 08:55:40;;;;;;;1.50;0.80;;;37.60;76.20;;;;;;5026323;28;20584;-81
2021/06/29 08:58:05;;;;;;;2.13;0.67;;;37.20;76.50;;;;;;5029115;28;20619;-80
2021/06/29 09:00:31;;;;;;;1.40;0.90;;;37.10;77.00;;;;;;5018588;28;20577;-80
2021/06/29 09:02:57;;;;;;;1.93;0.70;;;37.30;78.30;;;;;;5016173;28;20167;-77
2021/06/29 09:05:25;;;;;;;3.10;0.90;;;37.40;76.00;;;;;;5015460;28;20198;-78
2021/06/29 09:08:07;;;;;;;3.30;1.13;;;37.30;74.40;;;;;;5018010;28;20205;-77
2021/06/29 09:10:35;;;;;;;1.50;0.80;;;37.10;73.50;;;;;;5016801;28;20577;-80
2021/06/29 09:13:02;;;;;;;2.50;0.90;;;37.10;75.00;;;;;;5016227;28;20592;-79
2021/06/29 09:15:32;;;;;;;1.70;0.80;;;37.10;73.70;;;;;;5016222;28;20577;-81
2021/06/29 09:18:12;;;;;;;2.13;1.00;;;37.10;72.90;;;;;;5028615;28;20730;-81
2021/06/29 09:20:46;;;;;;;2.80;1.30;;;37.10;72.40;;;;;;5025246;28;20612;-81
2021/06/29 09:23:18;;;;;;;1.40;0.80;;;37.20;72.20;;;;;;5022579;28;20654;-80
2021/06/29 09:25:50;;;;;;;2.40;0.83;;;37.30;72.50;;;;;;5016257;28;20617;-80
2021/06/29 09:28:18;;;;;;;2.70;0.90;;;37.60;72.50;;;;;;5014038;28;20604;-79
2021/06/29 09:30:54;;;;;;;1.73;1.10;;;37.80;72.70;;;;;;5015776;28;20558;-80
2021/06/29 09:33:23;;;;;;;1.57;0.80;;;38.00;69.70;;;;;;5015217;28;20622;-80
2021/06/29 09:35:52;;;;;;;1.73;1.10;;;38.00;68.90;;;;;;5014829;28;20581;-80
2021/06/29 09:38:27;;;;;;;4.40;1.10;;;38.00;66.80;;;;;;5013598;28;20608;-80
2021/06/29 09:40:58;;;;;;;2.03;0.90;;;37.90;66.70;;;;;;5015122;28;21053;-80
2021/06/29 09:43:26;;;;;;;3.60;1.10;;;37.70;66.50;;;;;;5014902;28;20577;-80
2021/06/29 09:45:58;;;;;;;1.63;1.20;;;37.50;66.60;;;;;;5014206;28;20621;-80
2021/06/29 09:48:39;;;;;;;1.40;1.00;;;37.40;66.10;;;;;;5014296;28;20593;-80
2021/06/29 09:51:28;;;;;;;1.67;1.10;;;37.30;66.30;;;;;;5014771;28;20577;-80
2021/06/29 09:53:59;;;;;;;2.30;1.30;;;37.40;67.20;;;;;;5014876;28;20664;-80
2021/06/29 09:56:30;;;;;;;2.10;0.87;;;37.50;66.50;;;;;;4996953;28;20719;-80
2021/06/29 09:58:57;;;;;;;1.50;1.00;;;37.60;65.60;;;;;;5020290;28;20596;-79
2021/06/29 10:01:31;;;;;;;2.37;1.37;;;37.40;64.60;;;;;;5014873;28;20744;-80
2021/06/29 10:04:01;;;;;;;1.50;0.90;;;37.30;63.30;;;;;;5015156;28;20977;-79
2021/06/29 10:06:29;;;;;;;2.30;1.03;;;37.20;64.70;;;;;;5013342;28;20618;-78
2021/06/29 10:09:05;;;;;;;1.83;1.27;;;37.20;63.60;;;;;;5006916;28;20689;-79
2021/06/29 10:11:54;;;;;;;2.20;1.43;;;36.80;62.90;;;;;;5031526;28;20641;-79
2021/06/29 10:14:24;;;;;;;2.17;1.30;;;36.50;62.40;;;;;;5013015;28;20580;-78
2021/06/29 10:16:57;;;;;;;2.83;2.13;;;35.90;61.70;;;;;;5032568;28;20718;-78
2021/06/29 10:19:31;;;;;;;3.57;3.07;;;35.40;61.60;;;;;;4995786;28;20627;-78
2021/06/29 10:22:00;;;;;;;2.77;1.83;;;34.90;62.60;;;;;;4996246;28;20590;-78
2021/06/29 10:24:32;;;;;;;1.80;1.40;;;34.70;64.50;;;;;;5013428;28;20628;-79
2021/06/29 10:27:01;;;;;;;2.27;1.17;;;34.70;65.40;;;;;;4980009;28;20676;-78
2021/06/29 10:29:29;;;;;;;1.83;1.20;;;35.00;67.20;;;;;;5013483;28;20824;-78
2021/06/29 10:31:58;;;;;;;1.70;1.10;;;35.50;68.30;;;;;;4996118;28;20597;-78
2021/06/29 10:34:25;;;;;;;3.20;1.00;;;36.10;69.10;;;;;;5014467;28;20660;-78
2021/06/29 10:36:55;;;;;;;2.20;1.27;;;36.80;69.30;;;;;;5017052;28;20569;-78
2021/06/29 10:39:24;;;;;;;2.30;1.40;;;37.30;66.00;;;;;;5013639;28;20593;-78
2021/06/29 10:42:05;;;;;;;1.70;1.40;;;37.30;64.60;;;;;;5012229;28;21191;-79
2021/06/29 10:44:45;;;;;;;2.43;1.90;;;37.50;63.30;;;;;;5013518;28;20987;-79
2021/06/29 10:47:28;;;;;;;1.87;1.50;;;37.60;63.30;;;;;;5014120;28;20933;-82
2021/06/29 10:49:57;;;;;;;2.63;1.53;;;37.70;61.30;;;;;;4989070;28;20645;-79
2021/06/29 10:52:22;;;;;;;2.17;1.20;;;37.60;61.10;;;;;;5020563;28;20569;-81
2021/06/29 10:55:23;;;;;;;4.20;1.63;;;37.70;61.50;;;;;;5013779;28;20676;-80
2021/06/29 10:57:54;;;;;;;3.17;1.57;;;38.00;62.20;;;;;;5013560;28;20601;-80
2021/06/29 11:00:20;;;;;;;1.90;1.50;;;37.90;59.90;;;;;;5014025;28;20667;-80
2021/06/29 11:03:01;;;;;;;4.07;2.07;;;37.60;59.00;;;;;;5012133;28;20610;-80
2021/06/29 11:05:29;;;;;;;1.83;1.57;;;37.40;59.00;;;;;;5013451;28;20789;-80
2021/06/29 11:08:15;;;;;;;3.30;1.03;;;37.40;59.50;;;;;;5013595;28;20604;-79
2021/06/29 11:10:48;;;;;;;1.73;1.07;;;37.40;59.40;;;;;;5013414;28;20627;-79
2021/06/29 11:13:15;;;;;;;1.93;1.27;;;37.60;58.90;;;;;;5019711;28;20594;-81
2021/06/29 11:15:54;;;;;;;2.87;1.30;;;37.70;58.60;;;;;;5013537;28;20569;-80
2021/06/29 11:18:38;;;;;;;1.30;1.00;;;37.60;57.60;;;;;;5013524;28;20589;-80
2021/06/29 11:21:06;;;;;;;3.10;1.30;;;37.70;58.40;;;;;;5013629;28;20948;-81
2021/06/29 11:23:37;;;;;;;1.90;1.40;;;37.80;57.90;;;;;;5011659;28;20612;-80
2021/06/29 11:26:11;;;;;;;2.13;1.23;;;37.80;57.30;;;;;;5012414;28;20613;-81
2021/06/29 11:28:45;;;;;;;2.73;1.20;;;37.80;56.90;;;;;;5012241;28;20976;-81
2021/06/29 11:31:20;;;;;;;2.10;1.20;;;37.90;56.90;;;;;;5027510;28;20572;-81
2021/06/29 11:34:05;;;;;;;2.63;1.50;;;37.80;55.90;;;;;;5020703;28;20600;-81
2021/06/29 11:36:34;;;;;;;2.10;1.70;;;37.80;56.50;;;;;;5024074;28;20608;-80
2021/06/29 11:39:01;;;;;;;1.90;1.40;;;37.90;57.00;;;;;;5032428;28;21181;-82
2021/06/29 11:41:32;;;;;;;2.00;1.20;;;38.00;56.00;;;;;;5031090;28;20676;-81
2021/06/29 11:44:18;;;;;;;1.90;1.30;;;38.00;55.50;;;;;;5030977;28;20565;-81
2021/06/29 11:46:49;;;;;;;2.63;1.40;;;38.00;55.10;;;;;;5032202;28;20644;-80
2021/06/29 11:49:27;;;;;;;1.50;1.20;;;38.10;55.60;;;;;;5036541;28;20585;-80
2021/06/29 11:51:56;;;;;;;2.27;1.90;;;38.10;55.00;;;;;;5031944;28;20571;-81
2021/06/29 11:54:51;;;;;;;3.27;1.77;;;38.10;55.30;;;;;;5032026;28;20567;-80
2021/06/29 11:57:22;;;;;;;5.40;1.90;;;37.90;54.20;;;;;;5031789;28;21162;-80
2021/06/29 11:59:49;;;;;;;2.00;1.10;;;37.60;53.60;;;;;;5031783;28;20660;-80
2021/06/29 12:02:24;;;;;;;1.80;1.40;;;37.10;53.20;;;;;;5030644;28;21319;-81
2021/06/29 12:04:55;;;;;;;1.87;1.13;;;36.70;53.30;;;;;;5031746;28;20679;-80
2021/06/29 12:07:32;;;;;;;3.20;1.47;;;36.30;53.30;;;;;;5014052;28;20950;-80
2021/06/29 12:09:58;;;;;;;1.50;1.23;;;35.90;53.70;;;;;;5031956;28;20615;-81
2021/06/29 12:12:27;;;;;;;2.00;1.60;;;35.50;53.70;;;;;;5032004;28;20562;-81
2021/06/29 12:15:26;;;;;;;2.67;1.30;;;35.10;53.90;;;;;;5030810;28;20251;-80
2021/06/29 12:18:22;;;;;;;1.97;1.10;;;34.70;54.20;;;;;;5031976;28;20600;-81
2021/06/29 12:21:01;;;;;;;2.37;1.47;;;34.40;54.70;;;;;;5029442;28;20583;-79
2021/06/29 12:23:34;;;;;;;3.60;1.70;;;34.20;55.10;;;;;;5030701;28;20586;-80
2021/06/29 12:26:01;;;;;;;1.77;1.47;;;34.00;55.80;;;;;;5014235;28;20679;-80
2021/06/29 12:28:29;;;;;;;4.20;1.40;;;33.90;56.70;;;;;;5031559;28;20665;-80
2021/06/29 12:31:00;;;;;;;1.70;1.20;;;33.90;57.00;;;;;;5014127;28;20582;-79
2021/06/29 12:33:38;;;;;;;1.57;1.20;;;33.90;56.70;;;;;;5030850;28;20600;-80
2021/06/29 12:36:03;;;;;;;2.50;1.27;;;34.00;57.10;;;;;;5031273;28;20580;-80
2021/06/29 12:38:32;;;;;;;1.93;1.30;;;34.00;57.10;;;;;;5031362;28;21282;-79
2021/06/29 12:41:07;;;;;;;2.27;1.60;;;34.00;56.80;;;;;;5034328;28;20184;-79
2021/06/29 12:43:38;;;;;;;1.70;1.50;;;34.00;57.20;;;;;;5017291;28;20558;-76
2021/06/29 12:46:29;;;;;;;2.37;1.37;;;34.00;56.10;;;;;;5018681;28;20684;-83
2021/06/29 12:49:03;;;;;;;3.77;2.63;;;33.80;55.40;;;;;;5015924;28;20626;-82
2021/06/29 12:51:38;;;;;;;2.30;1.80;;;33.70;55.70;;;;;;5033591;28;20590;-83
2021/06/29 12:54:07;;;;;;;3.00;2.20;;;33.50;55.40;;;;;;5023416;28;20593;-83
2021/06/29 12:56:42;;;;;;;2.77;1.57;;;33.40;55.60;;;;;;4999551;28;20575;-83
2021/06/29 12:59:10;;;;;;;2.33;1.40;;;33.10;55.60;;;;;;5016523;28;21071;-83
2021/06/29 13:01:44;;;;;;;2.97;2.20;;;32.90;55.90;;;;;;5035726;28;20664;-82